createdAt,value
2023-01-29T00:00:12.288Z,101984.50
2023-01-29T00:02:38.784Z,101984.53
2023-01-29T00:05:25.410Z,101982.75
2023-01-29T00:07:53.238Z,101984.53
2023-01-29T00:10:19.747Z,101984.50
2023-01-29T00:12:46.161Z,101977.53
2023-01-29T00:15:12.746Z,101968.81
2023-01-29T00:17:39.139Z,101968.84
2023-01-29T00:20:06.115Z,101963.59
2023-01-29T00:22:32.511Z,101963.59
2023-01-29T00:24:59.210Z,101959.19
2023-01-29T00:27:25.671Z,101968.81
2023-01-29T00:30:09.568Z,101965.28
2023-01-29T00:32:36.188Z,101965.25
2023-01-29T00:35:02.854Z,101963.56
2023-01-29T00:37:29.403Z,101956.59
2023-01-29T00:39:56.705Z,101959.19
2023-01-29T00:42:41.974Z,101956.63
2023-01-29T00:45:08.848Z,101946.13
2023-01-29T00:47:35.326Z,101944.38
2023-01-29T00:50:07.459Z,101938.25
2023-01-29T00:52:36.307Z,101938.25
2023-01-29T00:55:04.838Z,101942.59
2023-01-29T00:57:33.216Z,101939.13
2023-01-29T00:59:59.893Z,101932.13
2023-01-29T01:02:45.657Z,101942.66
2023-01-29T01:05:18.007Z,101940.94
2023-01-29T01:07:50.366Z,101946.16
2023-01-29T01:10:34.669Z,101936.59
2023-01-29T01:13:04.665Z,101938.31
2023-01-29T01:15:35.342Z,101936.50
2023-01-29T01:18:03.253Z,101948.72
2023-01-29T01:20:31.740Z,101949.66
2023-01-29T01:22:58.173Z,101939.19
2023-01-29T01:25:26.665Z,101950.53
2023-01-29T01:30:26.107Z,101930.50
2023-01-29T01:32:53.074Z,101918.19
2023-01-29T01:35:19.571Z,101914.69
2023-01-29T01:37:46.094Z,101911.22
2023-01-29T01:40:18.245Z,101907.66
2023-01-29T01:42:48.247Z,101909.34
2023-01-29T01:45:27.757Z,101900.63
2023-01-29T01:48:20.554Z,101908.47
2023-01-29T01:50:53.369Z,101912.88
2023-01-29T01:53:28.639Z,101905.91
2023-01-29T01:56:03.507Z,101904.16
2023-01-29T01:58:35.517Z,101903.25
2023-01-29T02:01:07.575Z,101898.06
2023-01-29T02:04:08.969Z,101895.41
2023-01-29T02:06:55.329Z,101890.09
2023-01-29T02:09:38.776Z,101895.41
2023-01-29T02:12:11.700Z,101902.56
2023-01-29T02:14:40.255Z,101910.44
2023-01-29T02:17:09.722Z,101914.69
2023-01-29T02:20:05.702Z,101916.25
2023-01-29T02:22:55.202Z,101916.31
2023-01-29T02:25:40.610Z,101923.34
2023-01-29T02:28:21.808Z,101907.47
2023-01-29T02:31:21.310Z,101904.03
2023-01-29T02:34:12.611Z,101912.94
2023-01-29T02:36:49.854Z,101913.91
2023-01-29T02:39:57.018Z,101920.78
2023-01-29T02:42:27.183Z,101911.16
2023-01-29T02:45:05.525Z,101913.94
2023-01-29T02:47:39.896Z,101918.94
2023-01-29T02:50:21.246Z,101922.53
2023-01-29T02:53:25.773Z,101927.66
2023-01-29T02:55:58.537Z,101926.78
2023-01-29T02:59:07.299Z,101930.41
2023-01-29T03:01:39.858Z,101931.19
2023-01-29T03:04:12.476Z,101937.22
2023-01-29T03:06:44.363Z,101937.38
2023-01-29T03:09:20.388Z,101934.75
2023-01-29T03:11:52.750Z,101923.19
2023-01-29T03:14:25.683Z,101922.50
2023-01-29T03:16:54.310Z,101920.66
2023-01-29T03:19:29.678Z,101929.44
2023-01-29T03:22:02.056Z,101911.84
2023-01-29T03:24:50.101Z,101923.41
2023-01-29T03:27:39.179Z,101917.97
2023-01-29T03:30:29.511Z,101915.44
2023-01-29T03:32:59.074Z,101924.34
2023-01-29T03:35:36.484Z,101915.44
2023-01-29T03:38:05.337Z,101910.22
2023-01-29T03:40:43.731Z,101907.59
2023-01-29T03:43:48.953Z,101913.41
2023-01-29T03:46:21.057Z,101907.47
2023-01-29T03:48:58.136Z,101911.72
2023-01-29T03:51:34.401Z,101899.53
2023-01-29T03:54:26.404Z,101885.41
2023-01-29T03:56:55.578Z,101885.13
2023-01-29T03:59:47.959Z,101882.53
2023-01-29T04:02:27.745Z,101893.03
2023-01-29T04:04:59.589Z,101882.34
2023-01-29T04:07:29.679Z,101883.38
2023-01-29T04:10:13.922Z,101879.09
2023-01-29T04:12:47.932Z,101859.66
2023-01-29T04:15:16.976Z,101872.13
2023-01-29T04:17:49.335Z,101858.75
2023-01-29T04:20:16.710Z,101862.09
2023-01-29T04:22:47.279Z,101856.25
2023-01-29T04:25:17.308Z,101853.53
2023-01-29T04:27:58.977Z,101846.69
2023-01-29T04:30:46.649Z,101836.94
2023-01-29T04:33:39.919Z,101839.44
2023-01-29T04:36:16.959Z,101835.28
2023-01-29T04:38:54.334Z,101828.34
2023-01-29T04:41:39.612Z,101828.91
2023-01-29T04:44:15.274Z,101817.66
2023-01-29T04:46:57.294Z,101814.41
2023-01-29T04:49:40.040Z,101823.31
2023-01-29T04:52:16.938Z,101814.31
2023-01-29T04:54:50.251Z,101801.06
2023-01-29T04:57:33.863Z,101793.38
2023-01-29T05:00:11.988Z,101788.97
2023-01-29T05:02:41.002Z,101789.84
2023-01-29T05:05:08.911Z,101774.16
2023-01-29T05:07:38.450Z,101778.53
2023-01-29T05:10:08.724Z,101779.38
2023-01-29T05:12:38.097Z,101783.13
2023-01-29T05:15:10.647Z,101783.66
2023-01-29T05:17:37.144Z,101774.84
2023-01-29T05:20:03.918Z,101779.16
2023-01-29T05:22:30.929Z,101780.09
2023-01-29T05:24:57.491Z,101777.44
2023-01-29T05:27:54.080Z,101776.56
2023-01-29T05:30:20.585Z,101773.03
2023-01-29T05:32:47.003Z,101787.09
2023-01-29T05:35:13.920Z,101774.94
2023-01-29T05:37:40.347Z,101785.72
2023-01-29T05:40:08.863Z,101785.66
2023-01-29T05:42:35.327Z,101785.56
2023-01-29T05:45:01.830Z,101790.16
2023-01-29T05:47:28.300Z,101793.66
2023-01-29T05:49:54.847Z,101797.13
2023-01-29T05:52:21.266Z,101805.69
2023-01-29T05:54:47.737Z,101809.22
2023-01-29T05:57:15.035Z,101801.38
2023-01-29T05:59:41.577Z,101804.09
2023-01-29T06:02:08.103Z,101807.59
2023-01-29T06:04:34.540Z,101813.72
2023-01-29T06:07:03.385Z,101825.81
2023-01-29T06:09:29.832Z,101825.78
2023-01-29T06:11:56.300Z,101833.78
2023-01-29T06:14:22.713Z,101845.97
2023-01-29T06:16:49.157Z,101831.97
2023-01-29T06:19:15.677Z,101841.56
2023-01-29T06:21:42.132Z,101835.31
2023-01-29T06:24:08.894Z,101832.91
2023-01-29T06:26:35.307Z,101822.41
2023-01-29T06:29:01.746Z,101827.56
2023-01-29T06:31:38.476Z,101831.06
2023-01-29T06:34:06.552Z,101827.56
2023-01-29T06:36:33.152Z,101817.13
2023-01-29T06:38:59.720Z,101816.13
2023-01-29T06:41:26.272Z,101815.22
2023-01-29T06:43:53.198Z,101811.03
2023-01-29T06:46:19.732Z,101802.09
2023-01-29T06:48:46.165Z,101810.78
2023-01-29T06:51:12.712Z,101810.97
2023-01-29T06:53:39.886Z,101806.47
2023-01-29T06:56:07.383Z,101815.38
2023-01-29T06:58:37.199Z,101835.44
2023-01-29T07:01:04.904Z,101819.47
2023-01-29T07:03:31.593Z,101815.06
2023-01-29T07:05:58.081Z,101820.69
2023-01-29T07:08:24.504Z,101817.16
2023-01-29T07:10:50.977Z,101812.34
2023-01-29T07:13:17.758Z,101806.09
2023-01-29T07:15:44.599Z,101812.38
2023-01-29T07:18:13.860Z,101817.72
2023-01-29T07:20:41.357Z,101830.44
2023-01-29T07:23:11.556Z,101843.25
2023-01-29T07:25:38.040Z,101866.31
2023-01-29T07:28:04.916Z,101864.53
2023-01-29T07:30:31.581Z,101850.22
2023-01-29T07:33:07.419Z,101858.53
2023-01-29T07:35:42.047Z,101850.13
2023-01-29T07:38:10.240Z,101833.50
2023-01-29T07:40:36.963Z,101838.72
2023-01-29T07:43:05.711Z,101822.72
2023-01-29T07:45:35.109Z,101801.88
2023-01-29T07:48:01.585Z,101813.81
2023-01-29T07:50:28.091Z,101819.16
2023-01-29T07:52:55.126Z,101813.97
2023-01-29T07:55:21.564Z,101814.06
2023-01-29T07:57:48.384Z,101811.38
2023-01-29T08:00:15.829Z,101813.50
2023-01-29T08:02:42.506Z,101799.31
2023-01-29T08:05:09.263Z,101798.59
2023-01-29T08:07:35.685Z,101791.72
2023-01-29T08:10:02.144Z,101782.22
2023-01-29T08:12:28.607Z,101779.00
2023-01-29T08:14:57.344Z,101775.38
2023-01-29T08:17:23.779Z,101767.13
2023-01-29T08:19:50.221Z,101768.81
2023-01-29T08:22:16.685Z,101778.25
2023-01-29T08:24:53.818Z,101786.25
2023-01-29T08:27:26.741Z,101783.59
2023-01-29T08:29:53.229Z,101783.19
2023-01-29T08:32:19.650Z,101777.28
2023-01-29T08:34:46.075Z,101775.94
2023-01-29T08:37:12.526Z,101770.59
2023-01-29T08:39:38.939Z,101777.44
2023-01-29T08:42:05.479Z,101780.34
2023-01-29T08:44:31.914Z,101785.00
2023-01-29T08:46:58.420Z,101778.19
2023-01-29T08:49:24.911Z,101775.84
2023-01-29T08:51:51.595Z,101785.22
2023-01-29T08:54:18.053Z,101781.75
2023-01-29T08:56:45.282Z,101782.31
2023-01-29T08:59:11.769Z,101790.56
2023-01-29T09:01:38.302Z,101779.66
2023-01-29T09:04:04.844Z,101773.63
2023-01-29T09:06:31.455Z,101778.75
2023-01-29T09:08:57.869Z,101769.44
2023-01-29T09:11:24.503Z,101763.19
2023-01-29T09:13:50.957Z,101755.94
2023-01-29T09:16:18.737Z,101753.75
2023-01-29T09:18:45.190Z,101749.69
2023-01-29T09:21:11.654Z,101751.38
2023-01-29T09:23:38.292Z,101747.31
2023-01-29T09:26:04.893Z,101742.22
2023-01-29T09:28:31.365Z,101731.56
2023-01-29T09:31:02.451Z,101724.91
2023-01-29T09:33:29.320Z,101735.00
2023-01-29T09:35:55.748Z,101732.66
2023-01-29T09:38:22.241Z,101734.56
2023-01-29T09:40:48.677Z,101727.59
2023-01-29T09:43:27.162Z,101719.31
2023-01-29T09:46:00.252Z,101718.22
2023-01-29T09:48:30.577Z,101720.56
2023-01-29T09:51:00.122Z,101714.47
2023-01-29T09:53:35.985Z,101708.91
2023-01-29T09:56:06.264Z,101715.69
2023-01-29T09:58:37.122Z,101711.22
2023-01-29T10:01:37.638Z,101708.69
2023-01-29T10:04:25.832Z,101708.09
2023-01-29T10:06:54.904Z,101719.06
2023-01-29T10:09:30.406Z,101716.41
2023-01-29T10:12:06.100Z,101716.03
2023-01-29T10:15:19.301Z,101708.47
2023-01-29T10:18:26.673Z,101707.41
2023-01-29T10:21:05.220Z,101698.75
2023-01-29T10:23:33.413Z,101695.16
2023-01-29T10:26:00.930Z,101708.25
2023-01-29T10:28:38.132Z,101697.75
2023-01-29T10:31:09.637Z,101696.19
2023-01-29T10:33:49.131Z,101690.47
2023-01-29T10:36:32.122Z,101685.34
2023-01-29T10:39:01.650Z,101677.22
2023-01-29T10:41:56.212Z,101685.66
2023-01-29T10:44:41.333Z,101688.03
2023-01-29T10:47:30.576Z,101684.75
2023-01-29T10:50:23.072Z,101680.44
2023-01-29T10:53:37.089Z,101685.97
2023-01-29T10:56:23.236Z,101689.31
2023-01-29T10:59:34.867Z,101689.66
2023-01-29T11:02:03.332Z,101676.13
2023-01-29T11:04:35.242Z,101670.81
2023-01-29T11:07:03.104Z,101657.56
2023-01-29T11:09:36.750Z,101648.28
2023-01-29T11:12:28.845Z,101646.88
2023-01-29T11:15:05.705Z,101651.25
2023-01-29T11:17:32.203Z,101651.34
2023-01-29T11:19:58.618Z,101630.19
2023-01-29T11:22:30.128Z,101623.22
2023-01-29T11:25:18.979Z,101625.66
2023-01-29T11:27:49.437Z,101622.50
2023-01-29T11:30:28.506Z,101614.72
2023-01-29T11:33:05.202Z,101607.75
2023-01-29T11:35:33.277Z,101611.13
2023-01-29T11:38:21.607Z,101610.22
2023-01-29T11:40:48.147Z,101611.44
2023-01-29T11:43:26.641Z,101601.00
2023-01-29T11:46:02.245Z,101601.81
2023-01-29T11:48:51.359Z,101590.63
2023-01-29T11:51:29.263Z,101587.03
2023-01-29T11:54:19.730Z,101591.91
2023-01-29T11:56:47.976Z,101584.03
2023-01-29T11:59:48.845Z,101576.50
2023-01-29T12:02:27.930Z,101577.72
2023-01-29T12:04:57.526Z,101566.00
2023-01-29T12:07:24.535Z,101570.09
2023-01-29T12:09:56.704Z,101574.34
2023-01-29T12:12:42.389Z,101563.44
2023-01-29T12:15:08.817Z,101566.91
2023-01-29T12:17:38.834Z,101567.22
2023-01-29T12:20:13.955Z,101561.13
2023-01-29T12:22:57.719Z,101561.72
2023-01-29T12:25:30.952Z,101543.44
2023-01-29T12:28:04.076Z,101541.00
2023-01-29T12:30:46.175Z,101536.66
2023-01-29T12:33:24.561Z,101540.69
2023-01-29T12:36:09.281Z,101533.06
2023-01-29T12:38:37.103Z,101532.56
2023-01-29T12:41:22.309Z,101525.59
2023-01-29T12:43:54.970Z,101522.72
2023-01-29T12:46:31.916Z,101526.22
2023-01-29T12:49:03.134Z,101523.06
2023-01-29T12:51:44.026Z,101520.69
2023-01-29T12:54:18.091Z,101522.97
2023-01-29T12:56:48.470Z,101529.44
2023-01-29T12:59:31.562Z,101517.81
2023-01-29T13:02:50.586Z,101512.34
2023-01-29T13:05:25.029Z,101505.66
2023-01-29T13:07:57.544Z,101503.94
2023-01-29T13:10:49.418Z,101492.66
2023-01-29T13:13:31.844Z,101511.53
2023-01-29T13:16:01.054Z,101511.28
2023-01-29T13:18:39.585Z,101505.09
2023-01-29T13:21:11.922Z,101502.22
2023-01-29T13:23:42.626Z,101494.28
2023-01-29T13:26:09.176Z,101486.31
2023-01-29T13:28:36.477Z,101478.38
2023-01-29T13:31:14.753Z,101477.41
2023-01-29T13:33:44.026Z,101475.50
2023-01-29T13:36:16.433Z,101459.38
2023-01-29T13:38:45.096Z,101469.22
2023-01-29T13:41:12.178Z,101452.88
2023-01-29T13:43:41.507Z,101454.88
2023-01-29T13:46:14.345Z,101449.00
2023-01-29T13:48:50.603Z,101445.66
2023-01-29T13:51:21.960Z,101445.13
2023-01-29T13:54:00.702Z,101436.47
2023-01-29T13:56:33.293Z,101424.41
2023-01-29T13:59:05.852Z,101436.41
2023-01-29T14:01:47.170Z,101422.19
2023-01-29T14:04:21.625Z,101422.38
2023-01-29T14:06:50.782Z,101411.34
2023-01-29T14:09:36.834Z,101414.09
2023-01-29T14:12:05.411Z,101417.03
2023-01-29T14:14:50.304Z,101412.78
2023-01-29T14:17:19.278Z,101414.72
2023-01-29T14:20:01.306Z,101402.38
2023-01-29T14:22:29.872Z,101397.59
2023-01-29T14:25:06.503Z,101381.78
2023-01-29T14:27:35.202Z,101381.84
2023-01-29T14:30:08.140Z,101391.41
2023-01-29T14:32:34.597Z,101388.06
2023-01-29T14:35:04.093Z,101393.75
2023-01-29T14:37:41.562Z,101388.63
2023-01-29T14:40:10.764Z,101402.03
2023-01-29T14:42:43.766Z,101390.03
2023-01-29T14:45:34.408Z,101396.13
2023-01-29T14:48:19.390Z,101380.38
2023-01-29T14:50:51.119Z,101393.69
2023-01-29T14:53:25.523Z,101382.03
2023-01-29T14:56:16.625Z,101376.28
2023-01-29T14:58:57.229Z,101376.31
2023-01-29T15:01:32.471Z,101379.31
2023-01-29T15:04:04.617Z,101370.56
2023-01-29T15:06:55.068Z,101372.69
2023-01-29T15:09:36.531Z,101363.03
2023-01-29T15:12:14.250Z,101370.19
2023-01-29T15:14:52.239Z,101364.69
2023-01-29T15:17:25.015Z,101371.81
2023-01-29T15:19:51.639Z,101372.13
2023-01-29T15:22:23.243Z,101371.19
2023-01-29T15:25:07.281Z,101366.28
2023-01-29T15:27:34.301Z,101360.66
2023-01-29T15:30:04.198Z,101361.91
2023-01-29T15:32:39.637Z,101354.38
2023-01-29T15:35:17.352Z,101359.69
2023-01-29T15:37:43.970Z,101351.34
2023-01-29T15:40:16.700Z,101348.59
2023-01-29T15:42:48.526Z,101347.63
2023-01-29T15:45:23.629Z,101351.00
2023-01-29T15:47:50.691Z,101349.00
2023-01-29T15:50:17.691Z,101329.16
2023-01-29T15:52:50.766Z,101335.75
2023-01-29T15:55:23.149Z,101344.59
2023-01-29T15:57:50.170Z,101335.75
2023-01-29T16:00:28.565Z,101331.94
2023-01-29T16:02:56.930Z,101323.38
2023-01-29T16:05:32.815Z,101335.91
2023-01-29T16:08:00.718Z,101326.88
2023-01-29T16:10:30.050Z,101325.97
2023-01-29T16:12:57.578Z,101318.59
2023-01-29T16:15:50.019Z,101314.19
2023-01-29T16:18:22.906Z,101319.78
2023-01-29T16:20:57.201Z,101309.88
2023-01-29T16:23:27.643Z,101316.97
2023-01-29T16:25:56.715Z,101315.97
2023-01-29T16:28:23.245Z,101300.31
2023-01-29T16:30:57.230Z,101310.88
2023-01-29T16:33:32.831Z,101295.94
2023-01-29T16:35:59.420Z,101293.19
2023-01-29T16:38:31.605Z,101299.34
2023-01-29T16:41:12.936Z,101291.06
2023-01-29T16:43:51.086Z,101295.06
2023-01-29T16:46:25.940Z,101281.13
2023-01-29T16:48:53.488Z,101288.41
2023-01-29T16:51:38.590Z,101275.03
2023-01-29T16:54:16.111Z,101271.78
2023-01-29T16:56:45.940Z,101264.06
2023-01-29T16:59:36.576Z,101264.13
2023-01-29T17:02:04.420Z,101252.88
2023-01-29T17:04:30.881Z,101252.72
2023-01-29T17:06:59.943Z,101242.28
2023-01-29T17:09:35.162Z,101243.84
2023-01-29T17:12:08.980Z,101250.13
2023-01-29T17:14:37.909Z,101238.16
2023-01-29T17:17:04.321Z,101236.09
2023-01-29T17:19:31.106Z,101223.97
2023-01-29T17:21:59.080Z,101223.53
2023-01-29T17:24:26.289Z,101221.16
2023-01-29T17:26:53.912Z,101201.88
2023-01-29T17:29:26.402Z,101212.69
2023-01-29T17:31:52.899Z,101209.38
2023-01-29T17:34:19.387Z,101211.28
2023-01-29T17:36:46.143Z,101204.50
2023-01-29T17:39:16.151Z,101203.44
2023-01-29T17:41:47.286Z,101202.56
2023-01-29T17:44:13.821Z,101193.97
2023-01-29T17:46:40.228Z,101201.88
2023-01-29T17:49:26.973Z,101193.81
2023-01-29T17:51:54.486Z,101193.75
2023-01-29T17:54:21.803Z,101192.38
2023-01-29T17:56:49.131Z,101190.81
2023-01-29T17:59:29.299Z,101187.72
2023-01-29T18:01:55.789Z,101181.94
2023-01-29T18:04:22.391Z,101194.28
2023-01-29T18:06:50.889Z,101197.28
2023-01-29T18:09:20.765Z,101194.03
2023-01-29T18:11:48.362Z,101196.28
2023-01-29T18:14:15.163Z,101185.84
2023-01-29T18:16:43.677Z,101183.28
2023-01-29T18:19:22.214Z,101182.72
2023-01-29T18:21:49.975Z,101181.97
2023-01-29T18:24:16.495Z,101185.19
2023-01-29T18:26:43.132Z,101170.66
2023-01-29T18:29:09.683Z,101165.28
2023-01-29T18:31:36.210Z,101162.25
2023-01-29T18:34:02.712Z,101161.78
2023-01-29T18:36:29.287Z,101161.72
2023-01-29T18:38:57.008Z,101149.25
2023-01-29T18:41:23.915Z,101139.19
2023-01-29T18:43:52.620Z,101128.94
2023-01-29T18:46:19.820Z,101130.13
2023-01-29T18:48:46.267Z,101122.13
2023-01-29T18:51:12.738Z,101110.66
2023-01-29T18:53:39.232Z,101105.31
2023-01-29T18:56:06.394Z,101100.25
2023-01-29T18:58:36.091Z,101099.50
2023-01-29T19:01:09.108Z,101094.66
2023-01-29T19:03:36.355Z,101086.06
2023-01-29T19:06:04.532Z,101095.84
2023-01-29T19:08:31.615Z,101097.16
2023-01-29T19:11:02.036Z,101080.13
2023-01-29T19:13:29.647Z,101092.75
2023-01-29T19:15:56.195Z,101096.78
2023-01-29T19:18:23.328Z,101096.47
2023-01-29T19:20:50.066Z,101088.66
2023-01-29T19:23:16.530Z,101086.41
2023-01-29T19:25:43.395Z,101084.25
2023-01-29T19:28:09.809Z,101085.66
2023-01-29T19:30:36.495Z,101086.69
2023-01-29T19:33:03.002Z,101081.03
2023-01-29T19:35:29.628Z,101077.75
2023-01-29T19:37:56.142Z,101079.31
2023-01-29T19:40:23.724Z,101069.34
2023-01-29T19:42:54.819Z,101066.13
2023-01-29T19:45:37.209Z,101054.34
2023-01-29T19:48:12.319Z,101046.09
2023-01-29T19:50:39.122Z,101042.59
2023-01-29T19:53:05.592Z,101027.84
2023-01-29T19:55:32.133Z,101027.19
2023-01-29T19:57:58.819Z,101010.84
2023-01-29T20:00:25.409Z,101009.75
2023-01-29T20:02:52.121Z,101001.81
2023-01-29T20:05:20.292Z,100994.09
2023-01-29T20:07:47.151Z,100990.13
2023-01-29T20:10:17.325Z,100991.47
2023-01-29T20:12:45.130Z,100989.22
2023-01-29T20:15:12.839Z,100982.63
2023-01-29T20:17:39.481Z,100973.53
2023-01-29T20:20:06.874Z,100966.28
2023-01-29T20:22:33.385Z,100958.69
2023-01-29T20:24:59.915Z,100950.25
2023-01-29T20:27:26.384Z,100921.56
2023-01-29T20:29:52.856Z,100923.66
2023-01-29T20:32:19.521Z,100912.91
2023-01-29T20:34:49.625Z,100926.25
2023-01-29T20:37:16.162Z,100903.69
2023-01-29T20:39:42.582Z,100903.41
2023-01-29T20:42:09.043Z,100909.16
2023-01-29T20:44:35.520Z,100901.81
2023-01-29T20:47:02.588Z,100913.84
2023-01-29T20:49:29.221Z,100905.25
2023-01-29T20:51:55.651Z,100885.88
2023-01-29T20:54:22.205Z,100900.28
2023-01-29T20:56:49.022Z,100892.69
2023-01-29T20:59:15.601Z,100890.50
2023-01-29T21:01:43.045Z,100886.41
2023-01-29T21:04:09.544Z,100876.94
2023-01-29T21:06:36.036Z,100858.31
2023-01-29T21:09:02.520Z,100861.97
2023-01-29T21:11:28.982Z,100848.34
2023-01-29T21:13:57.791Z,100850.88
2023-01-29T21:16:26.168Z,100851.16
2023-01-29T21:18:56.008Z,100849.31
2023-01-29T21:21:22.496Z,100833.16
2023-01-29T21:23:49.084Z,100831.19
2023-01-29T21:26:15.645Z,100840.78
2023-01-29T21:28:42.050Z,100828.25
2023-01-29T21:31:10.869Z,100819.03
2023-01-29T21:33:37.672Z,100821.53
2023-01-29T21:36:04.713Z,100830.75
2023-01-29T21:38:31.424Z,100826.94
2023-01-29T21:41:05.195Z,100831.34
2023-01-29T21:43:31.658Z,100836.59
2023-01-29T21:46:00.227Z,100841.13
2023-01-29T21:48:27.290Z,100827.66
2023-01-29T21:50:53.819Z,100821.34
2023-01-29T21:53:20.503Z,100821.13
2023-01-29T21:55:46.935Z,100821.28
2023-01-29T21:58:14.530Z,100817.03
2023-01-29T22:00:41.197Z,100811.47
2023-01-29T22:03:07.688Z,100809.94
2023-01-29T22:05:34.300Z,100822.84
2023-01-29T22:08:00.978Z,100816.44
2023-01-29T22:10:28.494Z,100824.19
2023-01-29T22:12:55.196Z,100813.06
2023-01-29T22:15:23.745Z,100806.09
2023-01-29T22:17:51.631Z,100807.41
2023-01-29T22:20:18.778Z,100786.81
2023-01-29T22:22:45.727Z,100791.56
2023-01-29T22:25:12.244Z,100783.88
2023-01-29T22:27:38.758Z,100791.97
2023-01-29T22:30:06.252Z,100786.22
2023-01-29T22:32:33.030Z,100788.97
2023-01-29T22:34:59.607Z,100775.97
2023-01-29T22:37:26.074Z,100785.38
2023-01-29T22:39:52.498Z,100779.16
2023-01-29T22:42:20.547Z,100763.94
2023-01-29T22:44:48.127Z,100769.13
2023-01-29T22:47:14.597Z,100767.94
2023-01-29T22:49:41.565Z,100761.53
2023-01-29T22:52:10.613Z,100756.19
2023-01-29T22:54:38.855Z,100763.03
2023-01-29T22:57:05.699Z,100756.03
2023-01-29T22:59:33.080Z,100763.25
2023-01-29T23:01:59.566Z,100741.41
2023-01-29T23:04:26.054Z,100745.75
2023-01-29T23:06:52.573Z,100733.94
2023-01-29T23:09:19.193Z,100738.88
2023-01-29T23:11:45.629Z,100728.38
2023-01-29T23:14:12.062Z,100712.97
2023-01-29T23:16:38.527Z,100725.75
2023-01-29T23:19:05.066Z,100725.97
2023-01-29T23:21:31.549Z,100712.84
2023-01-29T23:24:01.174Z,100716.44
2023-01-29T23:26:51.817Z,100707.06
2023-01-29T23:29:18.339Z,100697.00
2023-01-29T23:31:44.897Z,100684.47
2023-01-29T23:34:11.479Z,100669.81
2023-01-29T23:36:37.910Z,100668.50
2023-01-29T23:39:04.557Z,100647.25
2023-01-29T23:41:30.950Z,100640.94
2023-01-29T23:43:57.391Z,100623.78
2023-01-29T23:46:23.903Z,100603.56
2023-01-29T23:48:50.332Z,100603.28
2023-01-29T23:51:16.927Z,100583.59
2023-01-29T23:53:43.343Z,100574.38
2023-01-29T23:56:10.661Z,100575.03
2023-01-29T23:58:37.203Z,100571.09
